<?xml version="1.0" encoding="UTF-8" standalone="no" ?>
<gpx xmlns="http://www.topografix.com/GPX/1/1" xmlns:xsi="http://www.w3.org/2001/XMLSchema-instance" xsi:schemaLocation="http://www.topografix.com/GPX/1/1 http://www.topografix.com/GPX/1/1/gpx.xsd" version="1.1" creator="VisuGPX - https://www.visugpx.com">
  <metadata>
    <name>Maulévrier - Verdon</name>
  </metadata>
  <trk>
    <name><![CDATA[Maulévrier - Verdon]]></name>
    <trkseg>
      <trkpt lat="47.00758" lon="-0.74856">
        <ele>131</ele>
        <time>2023-06-01T05:57:19Z</time>
      </trkpt>
      <trkpt lat="47.00612" lon="-0.74983">
        <ele>131</ele>
        <time>2023-06-01T06:01:06Z</time>
      </trkpt>
      <trkpt lat="47.00242" lon="-0.75699">
        <ele>112</ele>
        <time>2023-06-01T06:14:50Z</time>
      </trkpt>
      <trkpt lat="47.00157" lon="-0.75792">
        <ele>108</ele>
        <time>2023-06-01T06:17:12Z</time>
      </trkpt>
      <trkpt lat="47.00204" lon="-0.75979">
        <ele>112</ele>
        <time>2023-06-01T06:20:20Z</time>
      </trkpt>
      <trkpt lat="47.00206" lon="-0.76154">
        <ele>112</ele>
        <time>2023-06-01T06:23:00Z</time>
      </trkpt>
      <trkpt lat="47.00147" lon="-0.76276">
        <ele>110</ele>
        <time>2023-06-01T06:25:17Z</time>
      </trkpt>
      <trkpt lat="47.00166" lon="-0.76572">
        <ele>111</ele>
        <time>2023-06-01T06:29:49Z</time>
      </trkpt>
      <trkpt lat="47.00213" lon="-0.76776">
        <ele>109</ele>
        <time>2023-06-01T06:33:06Z</time>
      </trkpt>
      <trkpt lat="47.00305" lon="-0.76814">
        <ele>111</ele>
        <time>2023-06-01T06:35:14Z</time>
      </trkpt>
      <trkpt lat="47.0023" lon="-0.76931">
        <ele>107</ele>
        <time>2023-06-01T06:37:40Z</time>
      </trkpt>
      <trkpt lat="47.00265" lon="-0.76959">
        <ele>109</ele>
        <time>2023-06-01T06:38:34Z</time>
      </trkpt>
      <trkpt lat="47.00376" lon="-0.77405">
        <ele>104</ele>
        <time>2023-06-01T06:45:47Z</time>
      </trkpt>
      <trkpt lat="47.00247" lon="-0.77711">
        <ele>105</ele>
        <time>2023-06-01T06:51:22Z</time>
      </trkpt>
      <trkpt lat="47.00246" lon="-0.7786">
        <ele>104</ele>
        <time>2023-06-01T06:53:45Z</time>
      </trkpt>
      <trkpt lat="47.00127" lon="-0.78043">
        <ele>108</ele>
        <time>2023-06-01T06:57:41Z</time>
      </trkpt>
      <trkpt lat="47.00116" lon="-0.78236">
        <ele>109</ele>
        <time>2023-06-01T07:00:40Z</time>
      </trkpt>
      <trkpt lat="47.00175" lon="-0.78388">
        <ele>107</ele>
        <time>2023-06-01T07:03:22Z</time>
      </trkpt>
      <trkpt lat="47.00338" lon="-0.78641">
        <ele>104</ele>
        <time>2023-06-01T07:08:41Z</time>
      </trkpt>
      <trkpt lat="47.00388" lon="-0.78889">
        <ele>104</ele>
        <time>2023-06-01T07:12:39Z</time>
      </trkpt>
      <trkpt lat="47.00341" lon="-0.78946">
        <ele>106</ele>
        <time>2023-06-01T07:14:05Z</time>
      </trkpt>
      <trkpt lat="47.00236" lon="-0.78922">
        <ele>108</ele>
        <time>2023-06-01T07:16:27Z</time>
      </trkpt>
      <trkpt lat="47.00094" lon="-0.78662">
        <ele>117</ele>
        <time>2023-06-01T07:21:31Z</time>
      </trkpt>
      <trkpt lat="47.00072" lon="-0.78539">
        <ele>119</ele>
        <time>2023-06-01T07:23:27Z</time>
      </trkpt>
      <trkpt lat="46.99857" lon="-0.78638">
        <ele>132</ele>
        <time>2023-06-01T07:28:29Z</time>
      </trkpt>
      <trkpt lat="46.9969" lon="-0.78857">
        <ele>147</ele>
        <time>2023-06-01T07:33:28Z</time>
      </trkpt>
      <trkpt lat="46.99627" lon="-0.78766">
        <ele>148</ele>
        <time>2023-06-01T07:35:26Z</time>
      </trkpt>
      <trkpt lat="46.99487" lon="-0.78776">
        <ele>150</ele>
        <time>2023-06-01T07:38:39Z</time>
      </trkpt>
      <trkpt lat="46.99806" lon="-0.78292">
        <ele>133</ele>
        <time>2023-06-01T07:48:56Z</time>
      </trkpt>
      <trkpt lat="47.0014" lon="-0.77992">
        <ele>107</ele>
        <time>2023-06-01T07:57:42Z</time>
      </trkpt>
      <trkpt lat="47.00257" lon="-0.77805">
        <ele>104</ele>
        <time>2023-06-01T08:01:36Z</time>
      </trkpt>
      <trkpt lat="47.00239" lon="-0.77711">
        <ele>106</ele>
        <time>2023-06-01T08:03:06Z</time>
      </trkpt>
      <trkpt lat="47.00366" lon="-0.77402">
        <ele>104</ele>
        <time>2023-06-01T08:08:39Z</time>
      </trkpt>
      <trkpt lat="47.00247" lon="-0.76955">
        <ele>108</ele>
        <time>2023-06-01T08:16:00Z</time>
      </trkpt>
      <trkpt lat="47.00203" lon="-0.76958">
        <ele>107</ele>
        <time>2023-06-01T08:16:58Z</time>
        <extensions>
          <visugpx:TrkExtension xmlns:visugpx="https://www.visugpx.com/editgpx/">
            <visugpx:node>1</visugpx:node>
            </visugpx:TrkExtension>
        </extensions>
      </trkpt>
      <trkpt lat="47.00202" lon="-0.76959">
        <ele>107</ele>
        <time>2023-06-01T04:51:57Z</time>
      </trkpt>
      <trkpt lat="46.99939" lon="-0.76872">
        <ele>110</ele>
        <time>2023-06-01T04:58:23Z</time>
      </trkpt>
      <trkpt lat="46.99782" lon="-0.76753">
        <ele>108</ele>
        <time>2023-06-01T05:02:19Z</time>
      </trkpt>
      <trkpt lat="47.00102" lon="-0.76822">
        <ele>109</ele>
        <time>2023-06-01T05:09:43Z</time>
      </trkpt>
      <trkpt lat="47.00124" lon="-0.76787">
        <ele>109</ele>
        <time>2023-06-01T05:10:27Z</time>
      </trkpt>
      <trkpt lat="47.00072" lon="-0.76301">
        <ele>114</ele>
        <time>2023-06-01T05:18:29Z</time>
      </trkpt>
      <trkpt lat="47.00154" lon="-0.76112">
        <ele>108</ele>
        <time>2023-06-01T05:21:53Z</time>
      </trkpt>
      <trkpt lat="47.00182" lon="-0.75919">
        <ele>110</ele>
        <time>2023-06-01T05:24:57Z</time>
      </trkpt>
      <trkpt lat="47.00156" lon="-0.75793">
        <ele>108</ele>
        <time>2023-06-01T05:27:02Z</time>
      </trkpt>
      <trkpt lat="47.00241" lon="-0.757">
        <ele>112</ele>
        <time>2023-06-01T05:29:24Z</time>
      </trkpt>
      <trkpt lat="47.00346" lon="-0.75492">
        <ele>119</ele>
        <time>2023-06-01T05:33:24Z</time>
      </trkpt>
      <trkpt lat="47.00365" lon="-0.75524">
        <ele>122</ele>
        <time>2023-06-01T05:34:06Z</time>
      </trkpt>
      <trkpt lat="47.00329" lon="-0.75499">
        <ele>118</ele>
        <time>2023-06-01T05:34:59Z</time>
      </trkpt>
      <trkpt lat="47.00677" lon="-0.7574">
        <ele>133</ele>
        <time>2023-06-01T05:43:37Z</time>
      </trkpt>
      <trkpt lat="47.00774" lon="-0.75015">
        <ele>140</ele>
        <time>2023-06-01T05:54:53Z</time>
      </trkpt>
      <trkpt lat="47.00758" lon="-0.74856">
        <ele>131</ele>
        <time>2023-06-01T05:57:19Z</time>
      </trkpt>
    </trkseg>
  </trk>
</gpx>